sensor_id;sensor_type;location;lat;lon;timestamp;pressure;altitude;pressure_sealevel;temperature;humidity
57885;BME280;43703;51.060;-0.086;2023-04-09T00:02:00;101038.70;;;5.26;65.91
57885;BME280;43703;51.060;-0.086;2023-04-09T00:04:26;101034.15;;;4.96;65.70
57885;BME280;43703;51.060;-0.086;2023-04-09T00:06:51;101032.26;;;5.29;65.72
57885;BME280;43703;51.060;-0.086;2023-04-09T00:09:16;101029.96;;;5.49;66.35
57885;BME280;43703;51.060;-0.086;2023-04-09T00:11:41;101024.11;;;5.10;66.49
57885;BME280;43703;51.060;-0.086;2023-04-09T00:14:06;101021.38;;;5.53;66.29
57885;BME280;43703;51.060;-0.086;2023-04-09T00:16:32;101020.29;;;5.31;65.87
57885;BME280;43703;51.060;-0.086;2023-04-09T00:18:57;101017.31;;;5.49;66.06
57885;BME280;43703;51.060;-0.086;2023-04-09T00:21:23;101014.91;;;5.02;66.09
57885;BME280;43703;51.060;-0.086;2023-04-09T00:23:48;101012.82;;;5.36;66.41
57885;BME280;43703;51.060;-0.086;2023-04-09T00:26:13;101010.50;;;4.72;66.86
57885;BME280;43703;51.060;-0.086;2023-04-09T00:28:39;101012.37;;;4.28;69.75
57885;BME280;43703;51.060;-0.086;2023-04-09T00:31:05;101011.71;;;4.49;69.32
57885;BME280;43703;51.060;-0.086;2023-04-09T00:33:30;101005.78;;;5.88;67.96
57885;BME280;43703;51.060;-0.086;2023-04-09T00:35:55;101002.45;;;5.64;66.88
57885;BME280;43703;51.060;-0.086;2023-04-09T00:38:20;101003.21;;;5.18;67.03
57885;BME280;43703;51.060;-0.086;2023-04-09T00:40:48;101003.88;;;4.39;68.02
57885;BME280;43703;51.060;-0.086;2023-04-09T00:43:11;101001.08;;;4.24;69.91
57885;BME280;43703;51.060;-0.086;2023-04-09T00:45:37;100998.48;;;3.64;72.23
57885;BME280;43703;51.060;-0.086;2023-04-09T00:48:02;100995.75;;;4.15;71.79
57885;BME280;43703;51.060;-0.086;2023-04-09T00:50:27;100991.22;;;5.15;69.86
57885;BME280;43703;51.060;-0.086;2023-04-09T00:52:52;100990.08;;;4.92;68.63
57885;BME280;43703;51.060;-0.086;2023-04-09T00:55:19;100985.83;;;5.34;67.69
57885;BME280;43703;51.060;-0.086;2023-04-09T00:57:43;100983.14;;;5.88;67.05
57885;BME280;43703;51.060;-0.086;2023-04-09T01:00:10;100983.74;;;5.06;66.82
57885;BME280;43703;51.060;-0.086;2023-04-09T01:02:33;100980.14;;;5.07;68.29
57885;BME280;43703;51.060;-0.086;2023-04-09T01:04:59;100975.44;;;4.69;68.96
57885;BME280;43703;51.060;-0.086;2023-04-09T01:07:33;100972.43;;;4.81;70.04
57885;BME280;43703;51.060;-0.086;2023-04-09T01:09:59;100972.68;;;4.54;70.29
57885;BME280;43703;51.060;-0.086;2023-04-09T01:12:22;100967.89;;;4.89;70.21
57885;BME280;43703;51.060;-0.086;2023-04-09T01:14:46;100970.86;;;4.09;72.31
57885;BME280;43703;51.060;-0.086;2023-04-09T01:17:14;100966.89;;;5.13;71.17
57885;BME280;43703;51.060;-0.086;2023-04-09T01:19:40;100968.88;;;5.07;70.18
57885;BME280;43703;51.060;-0.086;2023-04-09T01:21:58;100967.49;;;5.51;69.96
57885;BME280;43703;51.060;-0.086;2023-04-09T01:24:34;100970.97;;;4.42;71.98
57885;BME280;43703;51.060;-0.086;2023-04-09T01:26:57;100967.80;;;5.34;70.48
57885;BME280;43703;51.060;-0.086;2023-04-09T01:29:15;100965.98;;;5.91;69.29
57885;BME280;43703;51.060;-0.086;2023-04-09T01:31:41;100962.49;;;4.71;71.74
57885;BME280;43703;51.060;-0.086;2023-04-09T01:34:06;100959.69;;;5.73;69.53
57885;BME280;43703;51.060;-0.086;2023-04-09T01:36:30;100954.92;;;6.30;68.36
57885;BME280;43703;51.060;-0.086;2023-04-09T01:38:56;100953.06;;;4.77;70.23
57885;BME280;43703;51.060;-0.086;2023-04-09T01:41:22;100954.91;;;4.65;70.10
57885;BME280;43703;51.060;-0.086;2023-04-09T01:43:47;100954.10;;;5.03;70.56
57885;BME280;43703;51.060;-0.086;2023-04-09T01:46:12;100954.73;;;4.90;70.65
57885;BME280;43703;51.060;-0.086;2023-04-09T01:48:37;100951.34;;;5.33;70.09
57885;BME280;43703;51.060;-0.086;2023-04-09T01:51:03;100950.04;;;5.15;70.04
57885;BME280;43703;51.060;-0.086;2023-04-09T01:53:28;100945.88;;;5.51;68.70
57885;BME280;43703;51.060;-0.086;2023-04-09T01:55:53;100944.43;;;5.73;68.71
57885;BME280;43703;51.060;-0.086;2023-04-09T01:58:18;100941.06;;;6.32;67.23
57885;BME280;43703;51.060;-0.086;2023-04-09T02:00:46;100939.65;;;5.66;68.25
57885;BME280;43703;51.060;-0.086;2023-04-09T02:03:12;100936.59;;;5.18;68.34
57885;BME280;43703;51.060;-0.086;2023-04-09T02:05:40;100935.29;;;5.23;68.77
57885;BME280;43703;51.060;-0.086;2023-04-09T02:08:02;100933.90;;;4.89;69.63
57885;BME280;43703;51.060;-0.086;2023-04-09T02:10:29;100932.62;;;4.92;69.55
57885;BME280;43703;51.060;-0.086;2023-04-09T02:12:52;100934.85;;;4.95;69.20
57885;BME280;43703;51.060;-0.086;2023-04-09T02:15:18;100931.02;;;5.04;70.77
57885;BME280;43703;51.060;-0.086;2023-04-09T02:17:43;100929.25;;;4.22;72.33
57885;BME280;43703;51.060;-0.086;2023-04-09T02:20:09;100928.94;;;5.08;71.01
57885;BME280;43703;51.060;-0.086;2023-04-09T02:22:33;100928.28;;;5.17;69.69
57885;BME280;43703;51.060;-0.086;2023-04-09T02:24:59;100924.82;;;4.78;69.07
57885;BME280;43703;51.060;-0.086;2023-04-09T02:27:25;100922.60;;;4.82;69.30
57885;BME280;43703;51.060;-0.086;2023-04-09T02:29:50;100923.43;;;5.33;68.84
57885;BME280;43703;51.060;-0.086;2023-04-09T02:32:16;100921.78;;;5.62;68.27
57885;BME280;43703;51.060;-0.086;2023-04-09T02:34:41;100919.50;;;5.00;68.91
57885;BME280;43703;51.060;-0.086;2023-04-09T02:37:07;100918.27;;;5.10;68.56
57885;BME280;43703;51.060;-0.086;2023-04-09T02:39:33;100916.30;;;4.88;69.16
57885;BME280;43703;51.060;-0.086;2023-04-09T02:41:57;100916.86;;;4.73;69.48
57885;BME280;43703;51.060;-0.086;2023-04-09T02:44:22;100914.11;;;4.90;68.86
57885;BME280;43703;51.060;-0.086;2023-04-09T02:46:50;100916.38;;;4.56;69.92
57885;BME280;43703;51.060;-0.086;2023-04-09T02:49:13;100909.50;;;4.96;68.89
57885;BME280;43703;51.060;-0.086;2023-04-09T02:51:39;100909.24;;;4.94;69.17
57885;BME280;43703;51.060;-0.086;2023-04-09T02:54:05;100906.64;;;5.10;68.40
57885;BME280;43703;51.060;-0.086;2023-04-09T02:56:30;100906.22;;;4.86;68.79
57885;BME280;43703;51.060;-0.086;2023-04-09T02:58:56;100903.48;;;4.55;67.15
57885;BME280;43703;51.060;-0.086;2023-04-09T03:01:21;100904.88;;;5.52;66.91
57885;BME280;43703;51.060;-0.086;2023-04-09T03:03:48;100902.07;;;5.54;67.13
57885;BME280;43703;51.060;-0.086;2023-04-09T03:06:12;100904.72;;;5.24;66.84
57885;BME280;43703;51.060;-0.086;2023-04-09T03:08:37;100901.10;;;6.07;65.99
57885;BME280;43703;51.060;-0.086;2023-04-09T03:11:03;100905.04;;;5.23;66.31
57885;BME280;43703;51.060;-0.086;2023-04-09T03:13:28;100903.80;;;5.34;67.40
57885;BME280;43703;51.060;-0.086;2023-04-09T03:15:53;100903.21;;;5.18;66.81
57885;BME280;43703;51.060;-0.086;2023-04-09T03:18:18;100898.62;;;4.86;67.26
57885;BME280;43703;51.060;-0.086;2023-04-09T03:20:45;100895.64;;;5.07;67.38
57885;BME280;43703;51.060;-0.086;2023-04-09T03:23:09;100893.76;;;4.91;67.60
57885;BME280;43703;51.060;-0.086;2023-04-09T03:25:34;100892.72;;;4.83;67.62
57885;BME280;43703;51.060;-0.086;2023-04-09T03:28:00;100892.74;;;5.07;66.94
57885;BME280;43703;51.060;-0.086;2023-04-09T03:30:25;100892.67;;;4.90;67.38
57885;BME280;43703;51.060;-0.086;2023-04-09T03:32:50;100892.92;;;4.76;67.13
57885;BME280;43703;51.060;-0.086;2023-04-09T03:35:16;100895.60;;;4.54;67.21
57885;BME280;43703;51.060;-0.086;2023-04-09T03:37:41;100894.98;;;4.77;67.43
57885;BME280;43703;51.060;-0.086;2023-04-09T03:40:08;100895.38;;;4.63;67.54
57885;BME280;43703;51.060;-0.086;2023-04-09T03:42:33;100892.47;;;4.56;67.31
57885;BME280;43703;51.060;-0.086;2023-04-09T03:44:58;100891.49;;;4.45;67.51
57885;BME280;43703;51.060;-0.086;2023-04-09T03:47:24;100892.46;;;4.65;67.90
57885;BME280;43703;51.060;-0.086;2023-04-09T03:49:49;100891.77;;;4.41;66.48
57885;BME280;43703;51.060;-0.086;2023-04-09T03:52:14;100895.29;;;4.62;67.22
57885;BME280;43703;51.060;-0.086;2023-04-09T03:54:40;100896.96;;;4.59;67.92
57885;BME280;43703;51.060;-0.086;2023-04-09T03:57:05;100897.58;;;4.56;67.61
57885;BME280;43703;51.060;-0.086;2023-04-09T03:59:31;100892.58;;;5.13;67.64
57885;BME280;43703;51.060;-0.086;2023-04-09T04:01:56;100891.63;;;4.53;67.94
57885;BME280;43703;51.060;-0.086;2023-04-09T04:04:21;100890.84;;;4.62;68.33
57885;BME280;43703;51.060;-0.086;2023-04-09T04:06:47;100891.45;;;4.35;68.13
57885;BME280;43703;51.060;-0.086;2023-04-09T04:09:12;100892.02;;;4.01;69.92
57885;BME280;43703;51.060;-0.086;2023-04-09T04:11:37;100891.30;;;4.18;70.20
57885;BME280;43703;51.060;-0.086;2023-04-09T04:14:03;100893.86;;;4.06;70.53
57885;BME280;43703;51.060;-0.086;2023-04-09T04:16:28;100898.17;;;4.12;71.46
57885;BME280;43703;51.060;-0.086;2023-04-09T04:18:54;100892.49;;;4.26;69.83
57885;BME280;43703;51.060;-0.086;2023-04-09T04:21:20;100886.63;;;5.01;69.68
57885;BME280;43703;51.060;-0.086;2023-04-09T04:23:45;100889.13;;;4.59;68.91
57885;BME280;43703;51.060;-0.086;2023-04-09T04:26:10;100890.05;;;4.61;68.27
57885;BME280;43703;51.060;-0.086;2023-04-09T04:28:36;100886.56;;;4.80;68.87
57885;BME280;43703;51.060;-0.086;2023-04-09T04:31:01;100886.20;;;4.86;68.94
57885;BME280;43703;51.060;-0.086;2023-04-09T04:33:26;100882.07;;;4.59;68.54
57885;BME280;43703;51.060;-0.086;2023-04-09T04:35:52;100882.31;;;3.89;70.96
57885;BME280;43703;51.060;-0.086;2023-04-09T04:38:17;100882.79;;;4.29;69.71
57885;BME280;43703;51.060;-0.086;2023-04-09T04:40:42;100885.57;;;4.42;69.07
57885;BME280;43703;51.060;-0.086;2023-04-09T04:43:08;100881.29;;;4.61;68.20
57885;BME280;43703;51.060;-0.086;2023-04-09T04:45:33;100882.79;;;4.36;67.97
57885;BME280;43703;51.060;-0.086;2023-04-09T04:47:59;100881.81;;;4.22;67.70
57885;BME280;43703;51.060;-0.086;2023-04-09T04:50:24;100880.68;;;4.07;68.63
57885;BME280;43703;51.060;-0.086;2023-04-09T04:52:49;100879.75;;;4.42;68.62
57885;BME280;43703;51.060;-0.086;2023-04-09T04:55:15;100881.84;;;4.60;68.38
57885;BME280;43703;51.060;-0.086;2023-04-09T04:57:40;100880.08;;;4.50;68.40
57885;BME280;43703;51.060;-0.086;2023-04-09T05:00:06;100884.02;;;4.42;67.80
57885;BME280;43703;51.060;-0.086;2023-04-09T05:02:30;100881.32;;;3.94;67.53
57885;BME280;43703;51.060;-0.086;2023-04-09T05:04:56;100879.99;;;4.24;67.85
57885;BME280;43703;51.060;-0.086;2023-04-09T05:07:21;100876.74;;;4.10;68.96
57885;BME280;43703;51.060;-0.086;2023-04-09T05:09:47;100876.18;;;4.62;67.76
57885;BME280;43703;51.060;-0.086;2023-04-09T05:12:12;100879.01;;;4.91;67.25
57885;BME280;43703;51.060;-0.086;2023-04-09T05:14:38;100879.77;;;4.66;67.56
57885;BME280;43703;51.060;-0.086;2023-04-09T05:17:03;100882.96;;;3.57;69.16
57885;BME280;43703;51.060;-0.086;2023-04-09T05:19:28;100881.58;;;2.60;73.34
57885;BME280;43703;51.060;-0.086;2023-04-09T05:21:53;100880.10;;;3.29;73.06
57885;BME280;43703;51.060;-0.086;2023-04-09T05:24:18;100879.09;;;3.36;72.71
57885;BME280;43703;51.060;-0.086;2023-04-09T05:26:43;100874.54;;;4.04;70.37
57885;BME280;43703;51.060;-0.086;2023-04-09T05:29:09;100876.67;;;2.92;74.41
57885;BME280;43703;51.060;-0.086;2023-04-09T05:31:36;100873.69;;;2.98;73.98
57885;BME280;43703;51.060;-0.086;2023-04-09T05:34:00;100873.86;;;3.35;73.74
57885;BME280;43703;51.060;-0.086;2023-04-09T05:36:26;100875.66;;;3.74;71.22
57885;BME280;43703;51.060;-0.086;2023-04-09T05:38:51;100875.81;;;3.38;71.24
57885;BME280;43703;51.060;-0.086;2023-04-09T05:41:16;100874.47;;;2.69;73.54
57885;BME280;43703;51.060;-0.086;2023-04-09T05:43:41;100865.42;;;3.71;71.23
57885;BME280;43703;51.060;-0.086;2023-04-09T05:46:07;100862.20;;;3.81;70.57
57885;BME280;43703;51.060;-0.086;2023-04-09T05:48:34;100866.76;;;4.22;69.84
57885;BME280;43703;51.060;-0.086;2023-04-09T05:50:58;100867.63;;;3.71;70.48
57885;BME280;43703;51.060;-0.086;2023-04-09T05:53:24;100871.23;;;3.36;73.81
57885;BME280;43703;51.060;-0.086;2023-04-09T05:55:49;100874.46;;;3.12;75.69
57885;BME280;43703;51.060;-0.086;2023-04-09T05:58:16;100873.51;;;3.33;75.76
57885;BME280;43703;51.060;-0.086;2023-04-09T06:00:40;100873.00;;;4.06;73.15
57885;BME280;43703;51.060;-0.086;2023-04-09T06:03:05;100872.43;;;4.04;72.32
57885;BME280;43703;51.060;-0.086;2023-04-09T06:05:30;100872.48;;;4.21;72.37
57885;BME280;43703;51.060;-0.086;2023-04-09T06:07:56;100873.50;;;4.58;71.17
57885;BME280;43703;51.060;-0.086;2023-04-09T06:10:21;100872.33;;;4.64;70.72
57885;BME280;43703;51.060;-0.086;2023-04-09T06:12:46;100871.71;;;5.16;69.46
57885;BME280;43703;51.060;-0.086;2023-04-09T06:15:12;100873.58;;;5.02;69.42
57885;BME280;43703;51.060;-0.086;2023-04-09T06:17:37;100872.85;;;4.81;68.89
57885;BME280;43703;51.060;-0.086;2023-04-09T06:20:03;100874.87;;;4.45;70.49
57885;BME280;43703;51.060;-0.086;2023-04-09T06:22:28;100869.92;;;5.17;70.41
57885;BME280;43703;51.060;-0.086;2023-04-09T06:24:53;100866.07;;;4.59;71.30
57885;BME280;43703;51.060;-0.086;2023-04-09T06:27:20;100869.17;;;3.76;72.80
57885;BME280;43703;51.060;-0.086;2023-04-09T06:29:44;100864.00;;;3.86;72.25
57885;BME280;43703;51.060;-0.086;2023-04-09T06:32:09;100862.33;;;6.07;70.49
57885;BME280;43703;51.060;-0.086;2023-04-09T06:34:34;100862.23;;;5.67;69.62
57885;BME280;43703;51.060;-0.086;2023-04-09T06:36:59;100858.45;;;6.02;71.07
57885;BME280;43703;51.060;-0.086;2023-04-09T06:39:25;100857.73;;;6.50;70.07
57885;BME280;43703;51.060;-0.086;2023-04-09T06:41:50;100862.91;;;6.37;68.86
57885;BME280;43703;51.060;-0.086;2023-04-09T06:44:16;100859.69;;;4.32;70.80
57885;BME280;43703;51.060;-0.086;2023-04-09T06:46:41;100858.48;;;3.93;75.34
57885;BME280;43703;51.060;-0.086;2023-04-09T06:49:07;100857.35;;;5.21;72.51
57885;BME280;43703;51.060;-0.086;2023-04-09T06:51:32;100860.86;;;4.32;74.52
57885;BME280;43703;51.060;-0.086;2023-04-09T06:53:57;100864.24;;;4.15;75.06
57885;BME280;43703;51.060;-0.086;2023-04-09T06:56:23;100860.27;;;4.80;76.79
57885;BME280;43703;51.060;-0.086;2023-04-09T06:58:48;100857.14;;;3.52;75.47
57885;BME280;43703;51.060;-0.086;2023-04-09T07:01:14;100849.88;;;5.43;73.64
57885;BME280;43703;51.060;-0.086;2023-04-09T07:03:39;100851.56;;;5.20;72.95
57885;BME280;43703;51.060;-0.086;2023-04-09T07:06:04;100854.20;;;4.84;73.14
57885;BME280;43703;51.060;-0.086;2023-04-09T07:08:29;100849.02;;;5.42;72.28
57885;BME280;43703;51.060;-0.086;2023-04-09T07:10:54;100851.30;;;4.70;73.71
57885;BME280;43703;51.060;-0.086;2023-04-09T07:13:20;100853.24;;;4.62;72.29
57885;BME280;43703;51.060;-0.086;2023-04-09T07:15:46;100857.39;;;4.42;75.08
57885;BME280;43703;51.060;-0.086;2023-04-09T07:18:11;100860.63;;;3.89;77.69
57885;BME280;43703;51.060;-0.086;2023-04-09T07:20:37;100862.70;;;3.95;79.57
57885;BME280;43703;51.060;-0.086;2023-04-09T07:23:02;100861.69;;;4.24;77.98
57885;BME280;43703;51.060;-0.086;2023-04-09T07:25:29;100857.38;;;4.50;75.84
57885;BME280;43703;51.060;-0.086;2023-04-09T07:27:53;100852.51;;;5.44;72.44
57885;BME280;43703;51.060;-0.086;2023-04-09T07:30:19;100853.65;;;6.87;69.56
57885;BME280;43703;51.060;-0.086;2023-04-09T07:32:44;100853.69;;;5.97;71.36
57885;BME280;43703;51.060;-0.086;2023-04-09T07:35:09;100848.46;;;6.34;71.18
57885;BME280;43703;51.060;-0.086;2023-04-09T07:37:35;100845.23;;;5.97;70.98
57885;BME280;43703;51.060;-0.086;2023-04-09T07:40:01;100843.48;;;6.64;68.64
57885;BME280;43703;51.060;-0.086;2023-04-09T07:42:26;100844.67;;;6.69;68.77
57885;BME280;43703;51.060;-0.086;2023-04-09T07:44:51;100843.95;;;5.73;72.85
57885;BME280;43703;51.060;-0.086;2023-04-09T07:47:16;100848.43;;;5.25;73.43
57885;BME280;43703;51.060;-0.086;2023-04-09T07:49:42;100847.96;;;6.86;72.70
57885;BME280;43703;51.060;-0.086;2023-04-09T07:52:07;100855.52;;;7.07;72.57
57885;BME280;43703;51.060;-0.086;2023-04-09T07:54:33;100862.46;;;7.10;69.27
57885;BME280;43703;51.060;-0.086;2023-04-09T07:56:58;100866.84;;;6.38;68.45
57885;BME280;43703;51.060;-0.086;2023-04-09T07:59:23;100866.96;;;7.63;69.75
57885;BME280;43703;51.060;-0.086;2023-04-09T08:01:48;100862.88;;;7.18;67.71
57885;BME280;43703;51.060;-0.086;2023-04-09T08:04:15;100863.22;;;7.06;71.14
57885;BME280;43703;51.060;-0.086;2023-04-09T08:06:38;100865.61;;;7.88;68.16
57885;BME280;43703;51.060;-0.086;2023-04-09T08:09:04;100865.49;;;8.09;66.71
57885;BME280;43703;51.060;-0.086;2023-04-09T08:11:29;100861.81;;;8.42;65.68
57885;BME280;43703;51.060;-0.086;2023-04-09T08:13:55;100870.39;;;8.64;65.86
57885;BME280;43703;51.060;-0.086;2023-04-09T08:16:21;100876.98;;;6.47;68.93
57885;BME280;43703;51.060;-0.086;2023-04-09T08:18:46;100878.13;;;7.36;70.57
57885;BME280;43703;51.060;-0.086;2023-04-09T08:21:12;100869.51;;;5.56;72.76
57885;BME280;43703;51.060;-0.086;2023-04-09T08:23:37;100866.23;;;6.31;72.17
57885;BME280;43703;51.060;-0.086;2023-04-09T08:26:03;100864.27;;;6.14;70.72
57885;BME280;43703;51.060;-0.086;2023-04-09T08:28:28;100861.80;;;4.62;76.17
57885;BME280;43703;51.060;-0.086;2023-04-09T08:30:53;100869.79;;;7.34;72.22
57885;BME280;43703;51.060;-0.086;2023-04-09T08:33:18;100872.14;;;5.54;71.84
57885;BME280;43703;51.060;-0.086;2023-04-09T08:35:43;100871.22;;;7.72;69.33
57885;BME280;43703;51.060;-0.086;2023-04-09T08:38:09;100871.43;;;7.59;68.82
57885;BME280;43703;51.060;-0.086;2023-04-09T08:40:35;100864.01;;;5.62;72.30
57885;BME280;43703;51.060;-0.086;2023-04-09T08:43:00;100856.40;;;5.43;74.29
57885;BME280;43703;51.060;-0.086;2023-04-09T08:45:25;100857.91;;;7.73;69.43
57885;BME280;43703;51.060;-0.086;2023-04-09T08:47:50;100861.05;;;8.63;67.89
57885;BME280;43703;51.060;-0.086;2023-04-09T08:50:16;100868.18;;;7.97;67.64
57885;BME280;43703;51.060;-0.086;2023-04-09T08:52:42;100867.93;;;8.29;66.44
57885;BME280;43703;51.060;-0.086;2023-04-09T08:55:07;100865.71;;;6.41;67.92
57885;BME280;43703;51.060;-0.086;2023-04-09T08:57:36;100867.89;;;8.20;67.44
57885;BME280;43703;51.060;-0.086;2023-04-09T08:59:57;100870.95;;;8.25;65.85
57885;BME280;43703;51.060;-0.086;2023-04-09T09:02:23;100871.92;;;7.95;66.57
57885;BME280;43703;51.060;-0.086;2023-04-09T09:04:49;100869.07;;;6.37;69.35
57885;BME280;43703;51.060;-0.086;2023-04-09T09:07:15;100866.51;;;7.32;71.80
57885;BME280;43703;51.060;-0.086;2023-04-09T09:09:49;100863.10;;;6.49;71.47
57885;BME280;43703;51.060;-0.086;2023-04-09T09:12:05;100861.56;;;8.51;64.99
57885;BME280;43703;51.060;-0.086;2023-04-09T09:14:32;100865.99;;;7.38;69.92
57885;BME280;43703;51.060;-0.086;2023-04-09T09:17:02;100864.74;;;7.61;67.75
57885;BME280;43703;51.060;-0.086;2023-04-09T09:19:27;100868.93;;;7.50;65.91
57885;BME280;43703;51.060;-0.086;2023-04-09T09:21:54;100867.21;;;8.09;66.62
57885;BME280;43703;51.060;-0.086;2023-04-09T09:24:16;100867.41;;;8.11;64.95
57885;BME280;43703;51.060;-0.086;2023-04-09T09:26:37;100866.80;;;8.52;65.07
57885;BME280;43703;51.060;-0.086;2023-04-09T09:29:03;100865.48;;;7.93;65.47
57885;BME280;43703;51.060;-0.086;2023-04-09T09:31:29;100860.38;;;8.04;67.02
57885;BME280;43703;51.060;-0.086;2023-04-09T09:33:54;100860.44;;;9.00;65.19
57885;BME280;43703;51.060;-0.086;2023-04-09T09:36:29;100863.34;;;9.35;63.95
57885;BME280;43703;51.060;-0.086;2023-04-09T09:38:50;100864.78;;;10.58;62.98
57885;BME280;43703;51.060;-0.086;2023-04-09T09:41:15;100858.69;;;10.33;60.92
57885;BME280;43703;51.060;-0.086;2023-04-09T09:43:40;100861.12;;;10.92;58.33
57885;BME280;43703;51.060;-0.086;2023-04-09T09:46:01;100858.48;;;8.53;61.07
57885;BME280;43703;51.060;-0.086;2023-04-09T09:48:26;100857.34;;;9.98;62.32
57885;BME280;43703;51.060;-0.086;2023-04-09T09:50:52;100857.83;;;8.83;63.22
57885;BME280;43703;51.060;-0.086;2023-04-09T09:53:21;100854.35;;;9.62;63.08
57885;BME280;43703;51.060;-0.086;2023-04-09T09:55:48;100852.08;;;10.63;60.42
57885;BME280;43703;51.060;-0.086;2023-04-09T09:58:15;100848.78;;;10.80;58.22
57885;BME280;43703;51.060;-0.086;2023-04-09T10:00:36;100848.14;;;10.03;58.83
57885;BME280;43703;51.060;-0.086;2023-04-09T10:03:08;100844.56;;;11.04;60.30
57885;BME280;43703;51.060;-0.086;2023-04-09T10:05:26;100841.85;;;11.57;58.10
57885;BME280;43703;51.060;-0.086;2023-04-09T10:07:53;100838.34;;;10.78;56.00
57885;BME280;43703;51.060;-0.086;2023-04-09T10:10:18;100845.23;;;11.20;54.47
57885;BME280;43703;51.060;-0.086;2023-04-09T10:12:44;100847.68;;;11.63;57.93
57885;BME280;43703;51.060;-0.086;2023-04-09T10:15:09;100845.95;;;12.74;54.17
57885;BME280;43703;51.060;-0.086;2023-04-09T10:17:35;100846.29;;;10.80;58.32
57885;BME280;43703;51.060;-0.086;2023-04-09T10:20:06;100836.40;;;10.64;57.75
57885;BME280;43703;51.060;-0.086;2023-04-09T10:22:26;100829.03;;;12.25;56.97
57885;BME280;43703;51.060;-0.086;2023-04-09T10:24:50;100821.50;;;10.26;57.59
57885;BME280;43703;51.060;-0.086;2023-04-09T10:27:16;100822.15;;;12.08;55.46
57885;BME280;43703;51.060;-0.086;2023-04-09T10:29:43;100822.21;;;13.72;51.89
57885;BME280;43703;51.060;-0.086;2023-04-09T10:32:08;100827.87;;;11.83;54.40
57885;BME280;43703;51.060;-0.086;2023-04-09T10:34:35;100814.81;;;12.90;54.24
57885;BME280;43703;51.060;-0.086;2023-04-09T10:36:58;100802.12;;;17.03;48.72
57885;BME280;43703;51.060;-0.086;2023-04-09T10:39:25;100802.52;;;15.84;48.23
57885;BME280;43703;51.060;-0.086;2023-04-09T10:41:49;100799.58;;;18.74;41.56
57885;BME280;43703;51.060;-0.086;2023-04-09T10:44:19;100798.86;;;18.73;43.30
57885;BME280;43703;51.060;-0.086;2023-04-09T10:46:39;100793.45;;;19.22;38.31
57885;BME280;43703;51.060;-0.086;2023-04-09T10:49:09;100796.06;;;14.62;43.06
57885;BME280;43703;51.060;-0.086;2023-04-09T10:51:34;100787.70;;;16.83;43.94
57885;BME280;43703;51.060;-0.086;2023-04-09T10:53:57;100780.12;;;17.83;42.46
57885;BME280;43703;51.060;-0.086;2023-04-09T10:56:23;100781.49;;;17.17;40.51
57885;BME280;43703;51.060;-0.086;2023-04-09T10:58:49;100789.79;;;18.38;39.64
57885;BME280;43703;51.060;-0.086;2023-04-09T11:01:20;100789.38;;;16.79;41.46
57885;BME280;43703;51.060;-0.086;2023-04-09T11:03:43;100787.47;;;16.26;41.76
57885;BME280;43703;51.060;-0.086;2023-04-09T11:06:04;100778.38;;;17.53;41.15
57885;BME280;43703;51.060;-0.086;2023-04-09T11:08:30;100782.67;;;17.56;39.13
57885;BME280;43703;51.060;-0.086;2023-04-09T11:10:54;100788.00;;;15.11;40.97
57885;BME280;43703;51.060;-0.086;2023-04-09T11:13:20;100783.52;;;15.37;42.91
57885;BME280;43703;51.060;-0.086;2023-04-09T11:15:45;100777.54;;;17.72;39.52
57885;BME280;43703;51.060;-0.086;2023-04-09T11:18:13;100777.25;;;16.78;38.89
57885;BME280;43703;51.060;-0.086;2023-04-09T11:20:37;100773.60;;;17.76;39.52
57885;BME280;43703;51.060;-0.086;2023-04-09T11:23:02;100768.06;;;16.76;38.73
57885;BME280;43703;51.060;-0.086;2023-04-09T11:25:28;100765.68;;;16.31;43.16
57885;BME280;43703;51.060;-0.086;2023-04-09T11:27:53;100760.88;;;18.34;37.05
57885;BME280;43703;51.060;-0.086;2023-04-09T11:30:18;100755.03;;;16.79;37.25
57885;BME280;43703;51.060;-0.086;2023-04-09T11:32:44;100749.86;;;18.57;36.38
57885;BME280;43703;51.060;-0.086;2023-04-09T11:35:11;100747.85;;;19.37;32.28
57885;BME280;43703;51.060;-0.086;2023-04-09T11:37:35;100746.08;;;19.29;34.30
57885;BME280;43703;51.060;-0.086;2023-04-09T11:40:01;100747.13;;;20.38;33.76
57885;BME280;43703;51.060;-0.086;2023-04-09T11:42:30;100739.54;;;16.67;35.37
57885;BME280;43703;51.060;-0.086;2023-04-09T11:44:52;100734.83;;;16.51;37.77
57885;BME280;43703;51.060;-0.086;2023-04-09T11:47:17;100731.54;;;16.64;39.06
57885;BME280;43703;51.060;-0.086;2023-04-09T11:49:44;100722.26;;;19.54;35.01
57885;BME280;43703;51.060;-0.086;2023-04-09T11:52:08;100718.59;;;19.64;32.62
57885;BME280;43703;51.060;-0.086;2023-04-09T11:54:33;100716.89;;;21.88;32.52
57885;BME280;43703;51.060;-0.086;2023-04-09T11:56:59;100716.04;;;22.87;29.63
57885;BME280;43703;51.060;-0.086;2023-04-09T11:59:24;100714.94;;;22.00;30.25
57885;BME280;43703;51.060;-0.086;2023-04-09T12:01:50;100716.18;;;20.52;28.43
57885;BME280;43703;51.060;-0.086;2023-04-09T12:04:19;100718.83;;;20.37;32.19
57885;BME280;43703;51.060;-0.086;2023-04-09T12:06:45;100719.65;;;20.77;31.06
57885;BME280;43703;51.060;-0.086;2023-04-09T12:09:07;100713.61;;;16.66;36.46
57885;BME280;43703;51.060;-0.086;2023-04-09T12:11:31;100715.54;;;14.51;39.10
57885;BME280;43703;51.060;-0.086;2023-04-09T12:14:00;100708.53;;;16.22;37.88
57885;BME280;43703;51.060;-0.086;2023-04-09T12:16:22;100701.65;;;16.30;38.96
57885;BME280;43703;51.060;-0.086;2023-04-09T12:18:47;100705.54;;;18.04;35.29
57885;BME280;43703;51.060;-0.086;2023-04-09T12:21:12;100701.33;;;15.86;38.43
57885;BME280;43703;51.060;-0.086;2023-04-09T12:23:38;100700.72;;;15.04;40.43
57885;BME280;43703;51.060;-0.086;2023-04-09T12:26:03;100695.18;;;15.77;40.03
57885;BME280;43703;51.060;-0.086;2023-04-09T12:28:29;100695.05;;;14.88;40.00
57885;BME280;43703;51.060;-0.086;2023-04-09T12:30:54;100700.47;;;14.48;41.58
57885;BME280;43703;51.060;-0.086;2023-04-09T12:33:20;100697.93;;;14.39;40.85
57885;BME280;43703;51.060;-0.086;2023-04-09T12:35:45;100692.02;;;14.36;41.14
57885;BME280;43703;51.060;-0.086;2023-04-09T12:38:10;100687.96;;;13.51;44.31